createdAt,value
2023-05-17T00:02:01.093Z,100119.72
2023-05-17T00:04:27.960Z,100116.40
2023-05-17T00:06:55.257Z,100116.02
2023-05-17T00:09:21.951Z,100114.75
2023-05-17T00:11:48.668Z,100117.44
2023-05-17T00:14:15.498Z,100114.52
2023-05-17T00:16:42.357Z,100119.60
2023-05-17T00:19:11.861Z,100120.52
2023-05-17T00:21:38.813Z,100121.68
2023-05-17T00:24:05.875Z,100115.27
2023-05-17T00:26:34.204Z,100115.01
2023-05-17T00:29:01.320Z,100113.40
2023-05-17T00:31:28.189Z,100109.81
2023-05-17T00:33:55.389Z,100100.97
2023-05-17T00:36:22.184Z,100101.91
2023-05-17T00:38:50.031Z,100103.52
2023-05-17T00:41:17.554Z,100106.55
2023-05-17T00:43:44.285Z,100104.63
2023-05-17T00:46:11.007Z,100108.49
2023-05-17T00:48:38.433Z,100103.77
2023-05-17T00:51:06.434Z,100104.43
2023-05-17T00:53:33.814Z,100103.83
2023-05-17T00:56:03.776Z,100100.41
2023-05-17T00:58:30.881Z,100100.91
2023-05-17T01:00:59.525Z,100101.17
2023-05-17T01:03:26.664Z,100101.84
2023-05-17T01:05:53.877Z,100101.11
2023-05-17T01:08:20.943Z,100105.65
2023-05-17T01:10:56.300Z,100107.23
2023-05-17T01:13:31.801Z,100104.94
2023-05-17T01:16:16.502Z,100101.01
2023-05-17T01:19:01.357Z,100101.40
2023-05-17T01:21:43.497Z,100098.42
2023-05-17T01:24:51.615Z,100101.44
2023-05-17T01:27:20.677Z,100101.27
2023-05-17T01:29:49.718Z,100104.75
2023-05-17T01:32:18.292Z,100105.57
2023-05-17T01:34:45.101Z,100112.13
2023-05-17T01:37:11.943Z,100106.29
2023-05-17T01:39:38.766Z,100112.95
2023-05-17T01:42:16.869Z,100114.92
2023-05-17T01:44:56.631Z,100116.46
2023-05-17T01:47:48.068Z,100122.15
2023-05-17T01:50:17.840Z,100126.39
2023-05-17T01:52:59.740Z,100128.88
2023-05-17T01:55:35.433Z,100130.30
2023-05-17T01:58:06.425Z,100128.15
2023-05-17T02:00:33.615Z,100132.70
2023-05-17T02:03:00.856Z,100136.77
2023-05-17T02:05:28.018Z,100138.33
2023-05-17T02:07:55.132Z,100141.05
2023-05-17T02:10:22.162Z,100148.50
2023-05-17T02:12:48.901Z,100147.09
2023-05-17T02:15:17.002Z,100147.92
2023-05-17T02:17:43.952Z,100150.80
2023-05-17T02:20:12.032Z,100154.00
2023-05-17T02:22:39.104Z,100153.39
2023-05-17T02:25:07.208Z,100153.18
2023-05-17T02:27:33.962Z,100154.08
2023-05-17T02:30:02.253Z,100151.53
2023-05-17T02:32:29.303Z,100151.44
2023-05-17T02:34:56.324Z,100154.08
2023-05-17T02:37:23.540Z,100154.18
2023-05-17T02:39:50.452Z,100158.09
2023-05-17T02:42:18.509Z,100157.84
2023-05-17T02:44:45.246Z,100165.67
2023-05-17T02:47:11.960Z,100166.66
2023-05-17T02:49:38.788Z,100168.59
2023-05-17T02:52:05.755Z,100171.08
2023-05-17T02:54:32.769Z,100170.35
2023-05-17T02:56:59.582Z,100176.73
2023-05-17T02:59:26.366Z,100179.09
2023-05-17T03:01:53.211Z,100185.87
2023-05-17T03:04:20.814Z,100189.34
2023-05-17T03:06:47.658Z,100197.61
2023-05-17T03:09:14.433Z,100196.02
2023-05-17T03:11:41.796Z,100198.64
2023-05-17T03:14:15.744Z,100204.61
2023-05-17T03:16:42.491Z,100208.56
2023-05-17T03:19:09.808Z,100213.56
2023-05-17T03:21:37.905Z,100218.73
2023-05-17T03:24:06.343Z,100224.41
2023-05-17T03:26:33.606Z,100225.19
2023-05-17T03:29:00.541Z,100228.86
2023-05-17T03:31:27.588Z,100235.66
2023-05-17T03:33:54.399Z,100236.94
2023-05-17T03:36:21.540Z,100242.86
2023-05-17T03:38:48.683Z,100245.84
2023-05-17T03:41:16.559Z,100248.20
2023-05-17T03:43:43.735Z,100249.08
2023-05-17T03:46:12.798Z,100258.43
2023-05-17T03:48:40.582Z,100261.77
2023-05-17T03:51:07.839Z,100265.20
2023-05-17T03:53:41.294Z,100274.42
2023-05-17T03:56:08.356Z,100280.98
2023-05-17T03:58:35.158Z,100284.76
2023-05-17T04:01:01.910Z,100288.45
2023-05-17T04:03:29.240Z,100294.23
2023-05-17T04:06:06.997Z,100298.52
2023-05-17T04:08:34.902Z,100303.35
2023-05-17T04:11:10.622Z,100308.08
2023-05-17T04:13:38.097Z,100309.20
2023-05-17T04:16:06.705Z,100310.98
2023-05-17T04:18:36.258Z,100313.14
2023-05-17T04:21:03.873Z,100322.89
2023-05-17T04:23:32.314Z,100329.20
2023-05-17T04:25:59.988Z,100325.36
2023-05-17T04:28:27.461Z,100325.70
2023-05-17T04:30:56.138Z,100325.20
2023-05-17T04:33:24.402Z,100319.36
2023-05-17T04:35:54.933Z,100320.49
2023-05-17T04:38:23.867Z,100325.55
2023-05-17T04:40:51.372Z,100327.08
2023-05-17T04:43:18.715Z,100330.27
2023-05-17T04:45:46.833Z,100336.41
2023-05-17T04:48:15.658Z,100334.96
2023-05-17T04:50:47.203Z,100342.52
2023-05-17T04:53:15.875Z,100344.02
2023-05-17T04:55:43.080Z,100344.27
2023-05-17T04:58:09.883Z,100344.77
2023-05-17T05:00:38.109Z,100349.24
2023-05-17T05:03:05.352Z,100346.44
2023-05-17T05:05:33.207Z,100347.05
2023-05-17T05:08:00.342Z,100355.95
2023-05-17T05:10:30.726Z,100357.98
2023-05-17T05:12:58.382Z,100361.57
2023-05-17T05:15:25.534Z,100366.16
2023-05-17T05:17:55.484Z,100368.17
2023-05-17T05:20:22.528Z,100371.13
2023-05-17T05:22:49.664Z,100374.23
2023-05-17T05:25:17.291Z,100376.04
2023-05-17T05:27:44.654Z,100376.99
2023-05-17T05:30:13.093Z,100382.34
2023-05-17T05:32:40.037Z,100380.61
2023-05-17T05:35:07.716Z,100382.70
2023-05-17T05:37:34.584Z,100385.61
2023-05-17T05:40:01.356Z,100391.61
2023-05-17T05:42:29.849Z,100394.77
2023-05-17T05:44:56.592Z,100396.72
2023-05-17T05:47:24.005Z,100399.02
2023-05-17T05:49:50.861Z,100404.07
2023-05-17T05:52:17.796Z,100401.73
2023-05-17T05:54:45.745Z,100402.45
2023-05-17T05:57:12.444Z,100406.85
2023-05-17T05:59:39.837Z,100406.24
2023-05-17T06:02:06.719Z,100402.52
2023-05-17T06:04:44.543Z,100401.04
2023-05-17T06:07:13.169Z,100405.36
2023-05-17T06:09:40.171Z,100404.09
2023-05-17T06:12:06.986Z,100406.43
2023-05-17T06:14:34.287Z,100412.03
2023-05-17T06:17:00.945Z,100413.98
2023-05-17T06:19:28.943Z,100416.30
2023-05-17T06:21:55.763Z,100413.54
2023-05-17T06:24:22.641Z,100413.42
2023-05-17T06:26:49.374Z,100417.73
2023-05-17T06:29:16.143Z,100415.96
2023-05-17T06:31:42.958Z,100416.14
2023-05-17T06:34:09.765Z,100417.02
2023-05-17T06:36:38.438Z,100420.67
2023-05-17T06:39:05.704Z,100420.17
2023-05-17T06:41:32.601Z,100423.83
2023-05-17T06:43:59.382Z,100425.69
2023-05-17T06:46:26.194Z,100426.31
2023-05-17T06:48:53.174Z,100427.92
2023-05-17T06:51:20.018Z,100425.17
2023-05-17T06:53:46.684Z,100431.37
2023-05-17T06:56:14.657Z,100437.20
2023-05-17T06:58:41.672Z,100437.21
2023-05-17T07:01:08.395Z,100442.05
2023-05-17T07:03:35.958Z,100444.91
2023-05-17T07:06:03.709Z,100446.52
2023-05-17T07:08:30.591Z,100444.05
2023-05-17T07:10:57.380Z,100446.05
2023-05-17T07:13:24.117Z,100444.81
2023-05-17T07:15:51.087Z,100446.23
2023-05-17T07:18:17.916Z,100444.49
2023-05-17T07:20:44.792Z,100443.61
2023-05-17T07:23:11.620Z,100447.05
2023-05-17T07:25:43.126Z,100446.66
2023-05-17T07:28:10.032Z,100450.98
2023-05-17T07:30:36.906Z,100446.34
2023-05-17T07:33:03.932Z,100444.79
2023-05-17T07:35:31.345Z,100443.69
2023-05-17T07:37:58.325Z,100441.52
2023-05-17T07:40:25.153Z,100437.65
2023-05-17T07:42:53.121Z,100433.68
2023-05-17T07:45:19.889Z,100437.93
2023-05-17T07:47:46.787Z,100433.55
2023-05-17T07:50:13.833Z,100439.62
2023-05-17T07:52:40.671Z,100443.64
2023-05-17T07:55:07.897Z,100445.77
2023-05-17T07:57:34.645Z,100445.38
2023-05-17T08:00:01.416Z,100446.11
2023-05-17T08:02:39.399Z,100446.95
2023-05-17T08:05:07.715Z,100451.09
2023-05-17T08:07:34.545Z,100448.89
2023-05-17T08:10:01.350Z,100449.56
2023-05-17T08:12:28.468Z,100457.44
2023-05-17T08:14:55.252Z,100464.40
2023-05-17T08:17:22.565Z,100466.48
2023-05-17T08:19:49.464Z,100467.63
2023-05-17T08:22:16.819Z,100476.82
2023-05-17T08:24:45.385Z,100484.22
2023-05-17T08:27:12.216Z,100489.09
2023-05-17T08:29:39.744Z,100493.54
2023-05-17T08:32:07.156Z,100495.54
2023-05-17T08:34:33.968Z,100505.69
2023-05-17T08:37:00.853Z,100509.02
2023-05-17T08:39:27.684Z,100516.84
2023-05-17T08:41:59.393Z,100521.10
2023-05-17T08:44:28.557Z,100526.17
2023-05-17T08:46:56.747Z,100529.29
2023-05-17T08:49:25.928Z,100525.39
2023-05-17T08:51:54.603Z,100531.41
2023-05-17T08:54:22.832Z,100526.74
2023-05-17T08:56:54.088Z,100532.22
2023-05-17T08:59:21.971Z,100535.67
2023-05-17T09:01:51.141Z,100540.20
2023-05-17T09:04:18.278Z,100545.84
2023-05-17T09:06:45.867Z,100547.33
2023-05-17T09:09:12.754Z,100551.65
2023-05-17T09:11:39.869Z,100551.16
2023-05-17T09:14:07.567Z,100549.41
2023-05-17T09:16:36.357Z,100552.30
2023-05-17T09:19:05.571Z,100551.20
2023-05-17T09:21:34.136Z,100549.17
2023-05-17T09:26:46.023Z,100552.23
2023-05-17T09:29:15.721Z,100544.77
2023-05-17T09:31:43.404Z,100543.25
2023-05-17T09:34:10.943Z,100540.98
2023-05-17T09:36:39.430Z,100543.08
2023-05-17T09:39:10.841Z,100546.79
2023-05-17T09:41:48.374Z,100544.63
2023-05-17T09:44:16.705Z,100548.82
2023-05-17T09:46:48.375Z,100555.75
2023-05-17T09:49:17.464Z,100563.27
2023-05-17T09:51:49.901Z,100575.86
2023-05-17T09:54:18.056Z,100572.27
2023-05-17T09:56:45.177Z,100574.79
2023-05-17T09:59:16.736Z,100578.68
2023-05-17T10:01:45.998Z,100578.14
2023-05-17T10:04:13.815Z,100580.99
2023-05-17T10:09:14.698Z,100582.23
2023-05-17T10:11:46.279Z,100575.39
2023-05-17T10:14:34.294Z,100576.86
2023-05-17T10:17:03.562Z,100569.36
2023-05-17T10:19:31.555Z,100571.49
2023-05-17T10:22:05.110Z,100571.39
2023-05-17T10:24:46.852Z,100571.16
2023-05-17T10:27:13.875Z,100569.33
2023-05-17T10:29:42.287Z,100571.70
2023-05-17T10:32:10.637Z,100574.16
2023-05-17T10:34:39.428Z,100577.98
2023-05-17T10:37:07.871Z,100581.84
2023-05-17T10:39:38.828Z,100579.25
2023-05-17T10:42:14.742Z,100580.73
2023-05-17T10:44:42.823Z,100578.14
2023-05-17T10:47:10.577Z,100579.80
2023-05-17T10:49:41.524Z,100579.52
2023-05-17T10:52:19.112Z,100580.27
2023-05-17T10:54:48.944Z,100581.31
2023-05-17T10:57:39.018Z,100585.36
2023-05-17T11:00:21.034Z,100585.03
2023-05-17T11:02:49.304Z,100592.39
2023-05-17T11:05:24.963Z,100593.88
2023-05-17T11:07:51.934Z,100599.04
2023-05-17T11:10:18.757Z,100599.23
2023-05-17T11:12:49.479Z,100600.33
2023-05-17T11:15:17.270Z,100601.52
2023-05-17T11:17:44.429Z,100599.65
2023-05-17T11:20:33.012Z,100600.14
2023-05-17T11:23:02.585Z,100598.00
2023-05-17T11:25:32.718Z,100595.27
2023-05-17T11:28:00.188Z,100596.90
2023-05-17T11:30:30.683Z,100597.46
2023-05-17T11:33:03.114Z,100599.41
2023-05-17T11:35:36.691Z,100600.23
2023-05-17T11:38:19.691Z,100601.75
2023-05-17T11:40:48.356Z,100602.30
2023-05-17T11:43:16.330Z,100600.75
2023-05-17T11:45:53.383Z,100603.61
2023-05-17T11:48:22.713Z,100602.69
2023-05-17T11:50:51.514Z,100605.65
2023-05-17T11:53:19.454Z,100607.05
2023-05-17T11:55:48.498Z,100612.64
2023-05-17T11:58:17.611Z,100615.20
2023-05-17T12:00:45.276Z,100615.45
2023-05-17T12:03:23.029Z,100618.38
2023-05-17T12:05:52.249Z,100624.29
2023-05-17T12:08:20.407Z,100629.06
2023-05-17T12:10:52.512Z,100632.91
2023-05-17T12:13:20.051Z,100632.80
2023-05-17T12:15:57.257Z,100633.86
2023-05-17T12:18:35.753Z,100632.22
2023-05-17T12:21:03.401Z,100640.52
2023-05-17T12:23:33.439Z,100644.73
2023-05-17T12:26:12.477Z,100643.56
2023-05-17T12:28:40.942Z,100646.73
2023-05-17T12:31:12.265Z,100654.09
2023-05-17T12:33:41.343Z,100656.73
2023-05-17T12:36:10.851Z,100653.58
2023-05-17T12:38:40.803Z,100655.35
2023-05-17T12:41:10.702Z,100653.51
2023-05-17T12:43:39.221Z,100660.77
2023-05-17T12:46:12.374Z,100662.48
2023-05-17T12:48:41.847Z,100667.85
2023-05-17T12:51:11.719Z,100672.11
2023-05-17T12:54:03.286Z,100676.44
2023-05-17T12:56:30.620Z,100680.02
2023-05-17T12:59:17.558Z,100675.66
2023-05-17T13:01:46.766Z,100673.62
2023-05-17T13:04:14.945Z,100673.62
2023-05-17T13:06:53.600Z,100674.05
2023-05-17T13:09:25.715Z,100675.86
2023-05-17T13:12:02.397Z,100676.80
2023-05-17T13:14:39.779Z,100675.52
2023-05-17T13:17:10.001Z,100675.02
2023-05-17T13:19:37.537Z,100672.92
2023-05-17T13:22:05.439Z,100670.87
2023-05-17T13:24:37.269Z,100672.73
2023-05-17T13:27:04.976Z,100671.80
2023-05-17T13:29:39.410Z,100665.06
2023-05-17T13:32:08.845Z,100670.48
2023-05-17T13:34:35.838Z,100673.08
2023-05-17T13:37:02.944Z,100669.79
2023-05-17T13:39:29.992Z,100673.95
2023-05-17T13:41:57.148Z,100677.17
2023-05-17T13:44:23.911Z,100672.36
2023-05-17T13:46:51.439Z,100673.23
2023-05-17T13:49:18.481Z,100676.75
2023-05-17T13:51:46.071Z,100675.00
2023-05-17T13:54:12.834Z,100676.40
2023-05-17T13:56:39.627Z,100676.24
2023-05-17T13:59:06.341Z,100672.05
2023-05-17T14:01:33.298Z,100675.89
2023-05-17T14:04:01.062Z,100673.20
2023-05-17T14:06:28.498Z,100669.40
2023-05-17T14:08:57.460Z,100668.83
2023-05-17T14:11:24.360Z,100670.92
2023-05-17T14:13:51.110Z,100672.21
2023-05-17T14:16:17.847Z,100672.16
2023-05-17T14:18:46.041Z,100676.73
2023-05-17T14:21:13.027Z,100675.86
2023-05-17T14:23:40.123Z,100673.40
2023-05-17T14:26:07.657Z,100676.64
2023-05-17T14:28:38.396Z,100677.11
2023-05-17T14:31:09.466Z,100677.88
2023-05-17T14:33:36.608Z,100678.73
2023-05-17T14:36:06.818Z,100679.13
2023-05-17T14:38:33.633Z,100678.57
2023-05-17T14:41:01.417Z,100683.95
2023-05-17T14:43:29.020Z,100689.99
2023-05-17T14:45:55.947Z,100690.30
2023-05-17T14:48:23.122Z,100690.08
2023-05-17T14:50:50.126Z,100692.98
2023-05-17T14:53:17.398Z,100696.02
2023-05-17T14:55:45.050Z,100696.09
2023-05-17T14:58:13.871Z,100697.24
2023-05-17T15:00:45.008Z,100699.61
2023-05-17T15:03:11.960Z,100701.22
2023-05-17T15:05:39.180Z,100704.81
2023-05-17T15:08:07.294Z,100704.94
2023-05-17T15:10:34.127Z,100700.08
2023-05-17T15:13:01.595Z,100703.67
2023-05-17T15:15:28.593Z,100707.13
2023-05-17T15:17:55.667Z,100709.20
2023-05-17T15:20:23.075Z,100709.64
2023-05-17T15:22:49.961Z,100716.10
2023-05-17T15:25:16.800Z,100715.20
2023-05-17T15:27:43.744Z,100716.75
2023-05-17T15:30:13.314Z,100720.05
2023-05-17T15:32:40.990Z,100719.98
2023-05-17T15:35:08.217Z,100720.18
2023-05-17T15:37:35.018Z,100717.30
2023-05-17T15:40:08.641Z,100721.85
2023-05-17T15:42:35.663Z,100717.23
2023-05-17T15:45:02.667Z,100724.09
2023-05-17T15:47:42.477Z,100725.48
2023-05-17T15:50:10.823Z,100728.62
2023-05-17T15:52:37.581Z,100730.84
2023-05-17T15:55:04.744Z,100738.89
2023-05-17T15:57:31.511Z,100738.34
2023-05-17T15:59:58.406Z,100738.71
2023-05-17T16:02:25.936Z,100739.12
2023-05-17T16:04:52.695Z,100739.40
2023-05-17T16:07:19.396Z,100739.27
2023-05-17T16:09:46.232Z,100740.44
2023-05-17T16:12:13.052Z,100742.23
2023-05-17T16:14:40.930Z,100743.64
2023-05-17T16:17:07.784Z,100746.78
2023-05-17T16:19:34.765Z,100747.93
2023-05-17T16:22:02.878Z,100748.02
2023-05-17T16:24:30.875Z,100751.11
2023-05-17T16:26:57.619Z,100755.98
2023-05-17T16:29:24.716Z,100757.30
2023-05-17T16:31:51.932Z,100757.44
2023-05-17T16:34:18.910Z,100759.62
2023-05-17T16:36:47.958Z,100758.02
2023-05-17T16:39:14.659Z,100760.67
2023-05-17T16:41:41.835Z,100761.50
2023-05-17T16:44:08.638Z,100766.00
2023-05-17T16:46:37.985Z,100763.04
2023-05-17T16:49:04.868Z,100767.42
2023-05-17T16:51:32.066Z,100766.66
2023-05-17T16:53:58.858Z,100762.96
2023-05-17T16:56:25.633Z,100761.89
2023-05-17T16:58:52.521Z,100762.25
2023-05-17T17:01:19.349Z,100764.93
2023-05-17T17:03:46.422Z,100763.77
2023-05-17T17:06:13.319Z,100766.61
2023-05-17T17:08:40.276Z,100764.19
2023-05-17T17:11:07.134Z,100766.48
2023-05-17T17:13:34.451Z,100774.58
2023-05-17T17:16:01.385Z,100778.20
2023-05-17T17:18:29.184Z,100782.36
2023-05-17T17:20:57.415Z,100783.02
2023-05-17T17:23:24.224Z,100782.16
2023-05-17T17:25:51.226Z,100780.94
2023-05-17T17:28:18.085Z,100781.77
2023-05-17T17:30:44.805Z,100782.71
2023-05-17T17:33:11.560Z,100782.16
2023-05-17T17:35:39.010Z,100786.54
2023-05-17T17:38:05.905Z,100790.31
2023-05-17T17:40:32.902Z,100789.52
2023-05-17T17:42:59.879Z,100791.20
2023-05-17T17:45:26.672Z,100793.00
2023-05-17T17:47:53.504Z,100791.81
2023-05-17T17:50:20.451Z,100796.91
2023-05-17T17:52:47.227Z,100797.79
2023-05-17T17:55:15.380Z,100803.91
2023-05-17T17:57:42.449Z,100806.86
2023-05-17T18:00:11.747Z,100811.81
2023-05-17T18:02:39.903Z,100813.13
2023-05-17T18:05:07.260Z,100817.32
2023-05-17T18:07:34.250Z,100818.98
2023-05-17T18:10:02.049Z,100820.58
2023-05-17T18:12:29.423Z,100825.87
2023-05-17T18:14:56.385Z,100832.13
2023-05-17T18:17:23.576Z,100826.92
2023-05-17T18:19:50.472Z,100828.57
2023-05-17T18:22:17.588Z,100830.05
2023-05-17T18:24:48.237Z,100826.75
2023-05-17T18:27:15.093Z,100826.25
2023-05-17T18:29:42.210Z,100828.84
2023-05-17T18:32:10.097Z,100828.74
2023-05-17T18:34:39.351Z,100834.08
2023-05-17T18:37:06.085Z,100835.84
2023-05-17T18:39:33.008Z,100841.64
2023-05-17T18:42:00.036Z,100845.78
2023-05-17T18:44:26.925Z,100848.41
2023-05-17T18:46:57.224Z,100856.27
2023-05-17T18:49:24.121Z,100859.69
2023-05-17T18:51:50.848Z,100864.50
2023-05-17T18:54:17.654Z,100866.30
2023-05-17T18:56:45.426Z,100865.41
2023-05-17T18:59:12.524Z,100868.83
2023-05-17T19:01:39.576Z,100874.17
2023-05-17T19:04:06.745Z,100882.58
2023-05-17T19:06:33.812Z,100884.20
2023-05-17T19:09:01.095Z,100888.20
2023-05-17T19:11:30.984Z,100893.39
2023-05-17T19:13:57.872Z,100897.96
2023-05-17T19:16:24.950Z,100899.15
2023-05-17T19:18:51.791Z,100908.23
2023-05-17T19:21:19.194Z,100909.79
2023-05-17T19:23:46.773Z,100917.89
2023-05-17T19:26:13.779Z,100918.58
2023-05-17T19:28:40.704Z,100928.06
2023-05-17T19:31:11.284Z,100933.45
2023-05-17T19:33:43.512Z,100938.17
2023-05-17T19:36:12.733Z,100943.05
2023-05-17T19:38:42.161Z,100945.55
2023-05-17T19:41:09.708Z,100947.28
2023-05-17T19:43:37.356Z,100953.48
2023-05-17T19:46:05.041Z,100958.52
2023-05-17T19:48:32.170Z,100958.37
2023-05-17T19:51:03.284Z,100961.36
2023-05-17T19:53:43.848Z,100957.98
2023-05-17T19:56:17.387Z,100959.98
2023-05-17T19:58:44.602Z,100969.00
2023-05-17T20:01:11.592Z,100972.95
2023-05-17T20:03:41.083Z,100971.11
2023-05-17T20:06:12.654Z,100975.48
2023-05-17T20:08:39.970Z,100981.58
2023-05-17T20:11:08.729Z,100981.67
2023-05-17T20:13:40.923Z,100991.55
2023-05-17T20:16:12.985Z,100992.59
2023-05-17T20:18:43.812Z,100991.09
2023-05-17T20:21:12.819Z,100993.58
2023-05-17T20:23:40.091Z,100994.03
2023-05-17T20:26:06.997Z,100997.19
2023-05-17T20:28:33.775Z,101004.45
2023-05-17T20:31:00.899Z,101004.37
2023-05-17T20:33:27.694Z,101009.85
2023-05-17T20:35:54.552Z,101011.54
2023-05-17T20:38:21.827Z,101015.02
2023-05-17T20:40:48.773Z,101015.41
2023-05-17T20:43:16.882Z,101023.00
2023-05-17T20:45:43.763Z,101022.21
2023-05-17T20:48:10.629Z,101028.97
2023-05-17T20:50:37.870Z,101032.05
2023-05-17T20:53:05.206Z,101033.27
2023-05-17T20:55:31.897Z,101034.77
2023-05-17T20:57:58.654Z,101033.96
2023-05-17T21:00:25.734Z,101032.39
2023-05-17T21:02:52.556Z,101031.70
2023-05-17T21:05:19.412Z,101032.69
2023-05-17T21:07:46.855Z,101033.96
2023-05-17T21:10:13.734Z,101040.22
2023-05-17T21:12:40.619Z,101040.31
2023-05-17T21:15:15.841Z,101042.41
2023-05-17T21:17:54.938Z,101045.61
2023-05-17T21:20:23.725Z,101047.98
2023-05-17T21:22:51.306Z,101050.27
2023-05-17T21:25:18.332Z,101049.63
2023-05-17T21:27:46.538Z,101051.59
2023-05-17T21:30:13.514Z,101054.46
2023-05-17T21:32:41.619Z,101052.83
2023-05-17T21:35:08.496Z,101056.17
2023-05-17T21:37:37.100Z,101058.49
2023-05-17T21:40:04.799Z,101060.70
2023-05-17T21:42:31.666Z,101060.55
2023-05-17T21:44:58.504Z,101061.94
2023-05-17T21:47:25.443Z,101065.33
2023-05-17T21:49:52.306Z,101066.30
2023-05-17T21:52:19.071Z,101067.70
2023-05-17T21:54:45.917Z,101066.35
2023-05-17T21:57:12.680Z,101073.48
2023-05-17T21:59:39.402Z,101075.92
2023-05-17T22:02:06.954Z,101079.21
2023-05-17T22:04:33.757Z,101081.00
2023-05-17T22:07:00.693Z,101080.75
2023-05-17T22:09:27.422Z,101085.84
2023-05-17T22:11:58.379Z,101085.02
2023-05-17T22:14:33.462Z,101094.61
2023-05-17T22:17:00.445Z,101094.08
2023-05-17T22:19:27.188Z,101094.52
2023-05-17T22:21:53.968Z,101096.42
2023-05-17T22:24:20.952Z,101096.10
2023-05-17T22:26:47.715Z,101097.58
2023-05-17T22:29:14.713Z,101097.23
2023-05-17T22:31:41.481Z,101100.27
2023-05-17T22:34:08.308Z,101107.80
2023-05-17T22:36:35.059Z,101105.27
2023-05-17T22:39:02.019Z,101103.54
2023-05-17T22:41:28.726Z,101103.44
2023-05-17T22:43:55.689Z,101102.94
2023-05-17T22:46:23.043Z,101107.74
2023-05-17T22:48:50.169Z,101106.57
2023-05-17T22:51:18.735Z,101104.40
2023-05-17T22:53:45.526Z,101109.64
2023-05-17T22:56:12.485Z,101111.61
2023-05-17T22:58:39.253Z,101119.07
2023-05-17T23:01:06.125Z,101119.70
2023-05-17T23:03:32.983Z,101124.73
2023-05-17T23:06:03.408Z,101125.40
2023-05-17T23:08:30.930Z,101121.05
2023-05-17T23:10:58.501Z,101122.20
2023-05-17T23:13:26.452Z,101118.07
2023-05-17T23:15:53.475Z,101117.13
2023-05-17T23:18:20.625Z,101121.16
2023-05-17T23:20:49.117Z,101121.33
2023-05-17T23:23:16.263Z,101123.86
2023-05-17T23:25:44.925Z,101125.60
2023-05-17T23:28:11.679Z,101127.27
2023-05-17T23:30:40.024Z,101126.63
2023-05-17T23:33:06.906Z,101129.02
2023-05-17T23:35:33.667Z,101135.03
2023-05-17T23:38:00.520Z,101130.30
2023-05-17T23:40:27.256Z,101127.13
2023-05-17T23:42:54.002Z,101129.72
2023-05-17T23:45:21.412Z,101125.13
2023-05-17T23:47:50.229Z,101117.08
2023-05-17T23:50:17.292Z,101114.33
2023-05-17T23:52:44.415Z,101115.36
2023-05-17T23:55:12.186Z,101106.85
2023-05-17T23:57:40.086Z,101105.98
